createdAt,value
2022-09-30T00:01:33.747Z,93.77
2022-09-30T00:04:02.875Z,93.21
2022-09-30T00:06:35.156Z,92.77
2022-09-30T00:09:03.550Z,93.22
2022-09-30T00:11:34.858Z,93.03
2022-09-30T00:14:04.119Z,93.40
2022-09-30T00:16:34.426Z,93.91
2022-09-30T00:19:04.356Z,93.84
2022-09-30T00:21:34.928Z,93.25
2022-09-30T00:24:03.394Z,92.63
2022-09-30T00:26:32.513Z,93.59
2022-09-30T00:29:01.584Z,93.71
2022-09-30T00:31:31.940Z,94.13
2022-09-30T00:34:09.234Z,94.12
2022-09-30T00:36:43.541Z,93.94
2022-09-30T00:39:14.302Z,94.07
2022-09-30T00:41:42.249Z,94.67
2022-09-30T00:44:47.374Z,93.45
2022-09-30T00:47:41.555Z,92.95
2022-09-30T00:50:26.275Z,94.37
2022-09-30T00:53:01.213Z,94.67
2022-09-30T00:55:37.099Z,94.81
2022-09-30T00:58:09.779Z,93.35
2022-09-30T01:00:38.208Z,94.04
2022-09-30T01:03:07.817Z,93.97
2022-09-30T01:05:36.023Z,93.93
2022-09-30T01:08:09.509Z,94.30
2022-09-30T01:10:37.653Z,94.00
2022-09-30T01:13:06.346Z,93.12
2022-09-30T01:15:50.702Z,93.74
2022-09-30T01:18:27.275Z,93.25
2022-09-30T01:21:31.797Z,94.45
2022-09-30T01:24:35.611Z,94.90
2022-09-30T01:27:19.610Z,94.26
2022-09-30T01:30:10.324Z,94.57
2022-09-30T01:33:11.312Z,94.72
2022-09-30T01:35:48.885Z,94.35
2022-09-30T01:38:24.918Z,94.22
2022-09-30T01:41:04.309Z,94.57
2022-09-30T01:43:45.504Z,94.48
2022-09-30T01:46:35.521Z,94.50
2022-09-30T01:49:13.786Z,93.55
2022-09-30T01:51:49.996Z,94.47
2022-09-30T01:54:23.509Z,94.94
2022-09-30T01:56:55.888Z,94.36
2022-09-30T01:59:28.941Z,93.78
2022-09-30T02:02:03.453Z,93.27
2022-09-30T02:04:38.158Z,93.92
2022-09-30T02:07:10.544Z,94.08
2022-09-30T02:09:42.519Z,93.82
2022-09-30T02:12:16.541Z,93.83
2022-09-30T02:14:48.681Z,93.90
2022-09-30T02:17:21.888Z,94.57
2022-09-30T02:19:56.084Z,94.09
2022-09-30T02:22:30.681Z,94.01
2022-09-30T02:25:05.072Z,94.24
2022-09-30T02:27:42.644Z,93.64
2022-09-30T02:30:13.745Z,94.24
2022-09-30T02:32:46.645Z,94.71
2022-09-30T02:35:23.728Z,94.90
2022-09-30T02:37:57.232Z,94.58
2022-09-30T02:40:30.501Z,93.90
2022-09-30T02:42:58.753Z,94.18
2022-09-30T02:45:27.805Z,93.62
2022-09-30T02:48:12.729Z,93.10
2022-09-30T02:50:49.104Z,93.00
2022-09-30T02:53:26.408Z,93.33
2022-09-30T02:56:24.540Z,92.62
2022-09-30T02:58:53.956Z,93.99
2022-09-30T03:01:21.943Z,93.36
2022-09-30T03:03:52.765Z,93.66
2022-09-30T03:06:22.525Z,93.17
2022-09-30T03:08:52.265Z,93.84
2022-09-30T03:11:23.301Z,93.83
2022-09-30T03:14:15.618Z,92.61
2022-09-30T03:17:12.233Z,93.08
2022-09-30T03:19:55.518Z,93.53
2022-09-30T03:22:45.247Z,93.12
2022-09-30T03:25:24.145Z,92.96
2022-09-30T03:28:06.254Z,92.03
2022-09-30T03:30:38.217Z,92.58
2022-09-30T03:33:11.556Z,93.72
2022-09-30T03:35:49.014Z,93.16
2022-09-30T03:38:28.485Z,92.40
2022-09-30T03:41:05.035Z,92.96
2022-09-30T03:43:35.933Z,93.02
2022-09-30T03:46:11.582Z,92.37
2022-09-30T03:48:41.518Z,92.83
2022-09-30T03:51:10.859Z,93.08
2022-09-30T03:53:42.162Z,92.58
2022-09-30T03:56:10.102Z,93.27
2022-09-30T03:58:42.223Z,93.16
2022-09-30T04:01:19.241Z,92.86
2022-09-30T04:03:47.841Z,93.35
2022-09-30T04:06:16.510Z,92.74
2022-09-30T04:08:45.891Z,92.43
2022-09-30T04:11:13.937Z,92.52
2022-09-30T04:13:41.874Z,92.46
2022-09-30T04:16:10.678Z,92.60
2022-09-30T04:18:40.152Z,92.64
2022-09-30T04:21:09.213Z,92.93
2022-09-30T04:23:37.553Z,93.33
2022-09-30T04:26:07.694Z,93.32
2022-09-30T04:28:35.968Z,93.28
2022-09-30T04:31:05.278Z,93.15
2022-09-30T04:33:33.953Z,93.83
2022-09-30T04:36:02.435Z,93.57
2022-09-30T04:38:31.172Z,93.08
2022-09-30T04:40:59.130Z,93.69
2022-09-30T04:43:28.771Z,94.37
2022-09-30T04:45:58.120Z,94.38
2022-09-30T04:48:28.017Z,95.84
2022-09-30T04:50:55.993Z,96.84
2022-09-30T04:53:23.912Z,97.01
2022-09-30T04:55:51.850Z,95.45
2022-09-30T04:58:19.836Z,96.04
2022-09-30T05:00:49.225Z,94.81
2022-09-30T05:03:17.257Z,94.21
2022-09-30T05:05:45.988Z,94.34
2022-09-30T05:08:13.920Z,94.96
2022-09-30T05:10:42.369Z,93.82
2022-09-30T05:13:10.458Z,94.51
2022-09-30T05:15:38.463Z,94.59
2022-09-30T05:18:07.929Z,94.52
2022-09-30T05:20:35.859Z,93.88
2022-09-30T05:23:03.927Z,94.69
2022-09-30T05:25:31.899Z,94.41
2022-09-30T05:27:59.895Z,95.10
2022-09-30T05:30:27.860Z,94.30
2022-09-30T05:32:55.781Z,94.33
2022-09-30T05:35:25.155Z,93.64
2022-09-30T05:37:53.077Z,94.07
2022-09-30T05:40:21.061Z,94.56
2022-09-30T05:42:49.028Z,94.63
2022-09-30T05:45:17.637Z,94.23
2022-09-30T05:47:51.785Z,95.32
2022-09-30T05:50:20.659Z,94.87
2022-09-30T05:52:50.226Z,94.76
2022-09-30T05:55:19.020Z,94.99
2022-09-30T05:57:50.024Z,94.20
2022-09-30T06:00:18.491Z,95.89
2022-09-30T06:02:46.507Z,96.13
2022-09-30T06:05:14.662Z,95.36
2022-09-30T06:07:42.641Z,94.52
2022-09-30T06:10:12.957Z,94.89
2022-09-30T06:12:40.925Z,94.73
2022-09-30T06:15:10.447Z,95.47
2022-09-30T06:17:38.437Z,95.99
2022-09-30T06:20:06.952Z,95.69
2022-09-30T06:22:37.031Z,95.94
2022-09-30T06:25:06.939Z,94.90
2022-09-30T06:27:37.250Z,94.56
2022-09-30T06:30:06.005Z,94.60
2022-09-30T06:32:34.234Z,95.05
2022-09-30T06:35:03.962Z,94.28
2022-09-30T06:37:31.907Z,94.33
2022-09-30T06:39:59.833Z,94.44
2022-09-30T06:42:27.743Z,93.92
2022-09-30T06:44:57.279Z,92.73
2022-09-30T06:47:26.146Z,94.08
2022-09-30T06:49:58.820Z,94.07
2022-09-30T06:52:27.429Z,96.77
2022-09-30T06:54:56.825Z,97.00
2022-09-30T06:57:27.741Z,96.89
2022-09-30T06:59:57.196Z,96.67
2022-09-30T07:02:25.274Z,95.35
2022-09-30T07:04:53.326Z,94.09
2022-09-30T07:07:22.349Z,93.94
2022-09-30T07:09:50.386Z,94.42
2022-09-30T07:12:18.491Z,94.51
2022-09-30T07:14:46.911Z,94.69
2022-09-30T07:17:16.270Z,95.44
2022-09-30T07:19:44.182Z,94.64
2022-09-30T07:22:34.357Z,94.27
2022-09-30T07:25:04.897Z,94.91
2022-09-30T07:27:34.363Z,94.83
2022-09-30T07:30:14.182Z,94.96
2022-09-30T07:32:46.008Z,94.24
2022-09-30T07:35:13.905Z,94.30
2022-09-30T07:37:41.824Z,93.98
2022-09-30T07:40:10.713Z,93.16
2022-09-30T07:42:41.679Z,92.58
2022-09-30T07:45:10.999Z,93.05
2022-09-30T07:47:38.907Z,92.25
2022-09-30T07:50:10.830Z,92.99
2022-09-30T07:52:39.081Z,93.40
2022-09-30T07:55:08.180Z,93.37
2022-09-30T07:57:36.156Z,93.09
2022-09-30T08:00:29.826Z,93.85
2022-09-30T08:02:53.136Z,93.13
2022-09-30T08:05:22.499Z,92.99
2022-09-30T08:07:50.395Z,92.35
2022-09-30T08:12:54.466Z,92.43
2022-09-30T08:15:25.825Z,92.48
2022-09-30T08:17:53.752Z,92.81
2022-09-30T08:20:23.046Z,92.80
2022-09-30T08:22:53.765Z,93.00
2022-09-30T08:25:22.352Z,92.76
2022-09-30T08:27:50.409Z,92.83
2022-09-30T08:30:18.594Z,93.48
2022-09-30T08:32:46.609Z,92.77
2022-09-30T08:35:14.553Z,93.13
2022-09-30T08:37:43.883Z,92.84
2022-09-30T08:40:21.008Z,92.77
2022-09-30T08:43:05.133Z,92.33
2022-09-30T08:45:42.269Z,93.90
2022-09-30T08:48:24.979Z,94.64
2022-09-30T08:51:02.409Z,94.30
2022-09-30T08:53:35.518Z,94.84
2022-09-30T08:56:05.424Z,94.33
2022-09-30T08:58:37.826Z,93.52
2022-09-30T09:01:16.348Z,93.61
2022-09-30T09:03:45.339Z,93.61
2022-09-30T09:06:25.266Z,92.78
2022-09-30T09:09:21.827Z,92.59
2022-09-30T09:12:03.281Z,92.79
2022-09-30T09:14:43.477Z,92.91
2022-09-30T09:17:23.924Z,93.06
2022-09-30T09:20:00.044Z,93.15
2022-09-30T09:22:28.935Z,93.44
2022-09-30T09:25:01.043Z,92.56
2022-09-30T09:27:44.346Z,92.62
2022-09-30T09:30:14.880Z,93.22
2022-09-30T09:32:43.518Z,91.95
2022-09-30T09:35:16.461Z,91.27
2022-09-30T09:38:13.542Z,91.34
2022-09-30T09:40:57.373Z,90.94
2022-09-30T09:43:34.924Z,90.51
2022-09-30T09:46:13.650Z,90.95
2022-09-30T09:48:41.621Z,90.77
2022-09-30T09:51:20.292Z,91.15
2022-09-30T09:53:53.485Z,90.13
2022-09-30T09:56:28.396Z,90.35
2022-09-30T09:59:13.213Z,91.11
2022-09-30T10:01:43.496Z,91.02
2022-09-30T10:04:16.229Z,91.29
2022-09-30T10:06:47.407Z,91.52
2022-09-30T10:09:31.054Z,91.38
2022-09-30T10:12:35.584Z,91.61
2022-09-30T10:15:14.975Z,91.03
2022-09-30T10:17:43.283Z,91.79
2022-09-30T10:20:24.035Z,91.80
2022-09-30T10:22:51.998Z,91.48
2022-09-30T10:25:25.033Z,91.57
2022-09-30T10:27:59.070Z,92.69
2022-09-30T10:30:47.280Z,94.14
2022-09-30T10:33:23.165Z,93.64
2022-09-30T10:36:11.006Z,93.51
2022-09-30T10:38:48.843Z,92.28
2022-09-30T10:41:23.643Z,91.67
2022-09-30T10:43:54.352Z,90.67
2022-09-30T10:46:30.661Z,91.48
2022-09-30T10:49:00.475Z,89.85
2022-09-30T10:51:36.214Z,90.01
2022-09-30T10:54:05.291Z,90.25
2022-09-30T10:56:39.326Z,90.50
2022-09-30T10:59:16.719Z,89.69
2022-09-30T11:01:53.706Z,89.92
2022-09-30T11:04:30.217Z,89.46
2022-09-30T11:07:06.196Z,88.51
2022-09-30T11:09:39.244Z,87.97
2022-09-30T11:12:16.109Z,87.85
2022-09-30T11:14:52.725Z,87.44
2022-09-30T11:17:32.415Z,86.28
2022-09-30T11:20:09.271Z,86.87
2022-09-30T11:22:44.999Z,86.70
2022-09-30T11:25:16.313Z,87.19
2022-09-30T11:27:54.631Z,86.96
2022-09-30T11:30:27.535Z,85.90
2022-09-30T11:33:13.984Z,85.26
2022-09-30T11:35:53.278Z,85.68
2022-09-30T11:38:41.584Z,86.98
2022-09-30T11:41:15.917Z,86.96
2022-09-30T11:43:55.309Z,87.13
2022-09-30T11:46:51.748Z,86.85
2022-09-30T11:49:38.531Z,87.27
2022-09-30T11:52:17.732Z,86.83
2022-09-30T11:55:06.462Z,87.19
2022-09-30T11:57:40.551Z,86.67
2022-09-30T12:00:15.872Z,86.84
2022-09-30T12:02:47.960Z,86.86
2022-09-30T12:05:20.722Z,86.26
2022-09-30T12:07:53.539Z,84.84
2022-09-30T12:10:27.956Z,84.92
2022-09-30T12:13:01.202Z,83.95
2022-09-30T12:15:30.956Z,83.43
2022-09-30T12:18:03.695Z,84.52
2022-09-30T12:20:37.246Z,84.07
2022-09-30T12:23:15.476Z,83.17
2022-09-30T12:25:47.479Z,83.01
2022-09-30T12:28:47.480Z,82.60
2022-09-30T12:31:33.745Z,81.37
2022-09-30T12:34:16.753Z,81.02
2022-09-30T12:37:13.363Z,79.51
2022-09-30T12:40:04.298Z,81.54
2022-09-30T12:43:07.392Z,80.35
2022-09-30T12:45:57.344Z,79.96
2022-09-30T12:48:29.604Z,80.62
2022-09-30T12:50:58.894Z,81.00
2022-09-30T12:53:31.984Z,80.00
2022-09-30T12:56:05.349Z,80.13
2022-09-30T12:58:37.219Z,81.18
2022-09-30T13:01:13.231Z,80.44
2022-09-30T13:03:51.879Z,79.70
2022-09-30T13:06:21.985Z,81.42
2022-09-30T13:09:18.872Z,79.83
2022-09-30T13:11:48.249Z,80.36
2022-09-30T13:14:26.421Z,79.35
2022-09-30T13:17:04.299Z,79.55
2022-09-30T13:19:36.434Z,78.34
2022-09-30T13:22:51.826Z,77.56
2022-09-30T13:25:21.880Z,78.59
2022-09-30T13:27:53.529Z,80.04
2022-09-30T13:30:40.859Z,79.66
2022-09-30T13:33:32.518Z,79.34
2022-09-30T13:36:11.066Z,80.95
2022-09-30T13:38:41.476Z,81.18
2022-09-30T13:41:18.858Z,80.91
2022-09-30T13:43:53.161Z,81.11
2022-09-30T13:46:29.946Z,80.75
2022-09-30T13:49:03.316Z,81.15
2022-09-30T13:51:34.025Z,81.94
2022-09-30T13:54:08.910Z,82.12
2022-09-30T13:56:41.215Z,81.85
2022-09-30T13:59:41.672Z,82.58
2022-09-30T14:02:38.563Z,83.86
2022-09-30T14:05:29.121Z,83.63
2022-09-30T14:08:13.983Z,82.75
2022-09-30T14:10:57.139Z,83.62
2022-09-30T14:13:42.431Z,85.56
2022-09-30T14:16:41.995Z,87.02
2022-09-30T14:19:28.501Z,88.14
2022-09-30T14:21:59.824Z,88.51
2022-09-30T14:24:35.206Z,88.90
2022-09-30T14:27:27.863Z,86.93
2022-09-30T14:30:07.386Z,88.40
2022-09-30T14:32:42.296Z,87.94
2022-09-30T14:35:15.570Z,87.14
2022-09-30T14:37:46.916Z,87.10
2022-09-30T14:40:19.330Z,88.71
2022-09-30T14:42:48.620Z,89.79
2022-09-30T14:45:22.274Z,91.16
2022-09-30T14:47:53.537Z,91.22
2022-09-30T14:50:26.173Z,92.05
2022-09-30T14:52:57.099Z,92.48
2022-09-30T14:55:29.010Z,90.56
2022-09-30T14:58:18.267Z,90.85
2022-09-30T15:00:51.641Z,89.90
2022-09-30T15:03:19.824Z,91.07
2022-09-30T15:05:47.852Z,91.04
2022-09-30T15:08:19.998Z,90.96
2022-09-30T15:10:49.573Z,91.38
2022-09-30T15:13:19.626Z,90.86
2022-09-30T15:15:49.197Z,91.01
2022-09-30T15:18:31.278Z,92.01
2022-09-30T15:21:08.688Z,92.77
2022-09-30T15:23:39.926Z,90.80
2022-09-30T15:26:09.188Z,89.87
2022-09-30T15:28:37.856Z,90.27
2022-09-30T15:31:09.192Z,90.95
2022-09-30T15:33:37.263Z,90.97
2022-09-30T15:36:08.186Z,92.00
2022-09-30T15:38:38.715Z,92.75
2022-09-30T15:41:09.570Z,93.43
2022-09-30T15:43:41.138Z,93.72
2022-09-30T15:46:27.104Z,93.98
2022-09-30T15:48:57.383Z,92.64
2022-09-30T15:51:29.155Z,92.29
2022-09-30T15:54:00.484Z,90.91
2022-09-30T15:56:35.381Z,91.38
2022-09-30T15:59:06.385Z,91.43
2022-09-30T16:01:38.013Z,91.80
2022-09-30T16:04:11.019Z,90.68
2022-09-30T16:06:46.371Z,89.95
2022-09-30T16:09:25.475Z,88.96
2022-09-30T16:12:05.479Z,89.28
2022-09-30T16:14:37.388Z,91.03
2022-09-30T16:17:08.010Z,92.47
2022-09-30T16:19:36.101Z,92.96
2022-09-30T16:22:04.063Z,90.96
2022-09-30T16:24:45.825Z,89.72
2022-09-30T16:27:31.637Z,90.05
2022-09-30T16:30:01.025Z,89.12
2022-09-30T16:32:33.259Z,88.79
2022-09-30T16:35:01.460Z,89.12
2022-09-30T16:37:29.443Z,88.81
2022-09-30T16:40:02.969Z,89.39
2022-09-30T16:42:33.019Z,89.41
2022-09-30T16:45:01.904Z,89.36
2022-09-30T16:47:31.280Z,89.01
2022-09-30T16:49:59.364Z,89.43
2022-09-30T16:52:27.354Z,90.85
2022-09-30T16:54:55.369Z,90.26
2022-09-30T16:57:23.328Z,90.52
2022-09-30T16:59:51.525Z,92.21
2022-09-30T17:02:20.239Z,92.96
2022-09-30T17:04:49.638Z,93.46
2022-09-30T17:07:17.672Z,94.09
2022-09-30T17:09:45.769Z,93.65
2022-09-30T17:12:14.451Z,94.08
2022-09-30T17:14:43.941Z,94.35
2022-09-30T17:17:14.082Z,94.83
2022-09-30T17:19:42.459Z,95.11
2022-09-30T17:22:11.876Z,94.60
2022-09-30T17:24:39.823Z,94.24
2022-09-30T17:27:07.884Z,93.11
2022-09-30T17:29:41.930Z,93.60
2022-09-30T17:32:10.343Z,93.88
2022-09-30T17:34:38.302Z,94.17
2022-09-30T17:39:40.717Z,93.74
2022-09-30T17:42:30.210Z,93.47
2022-09-30T17:44:58.564Z,92.71
2022-09-30T17:47:26.838Z,92.40
2022-09-30T17:49:55.157Z,92.15
2022-09-30T17:52:23.823Z,92.53
2022-09-30T17:54:53.243Z,93.29
2022-09-30T17:57:21.908Z,93.45
2022-09-30T17:59:50.827Z,92.96
2022-09-30T18:02:20.105Z,92.61
2022-09-30T18:04:48.080Z,92.53
2022-09-30T18:07:16.032Z,92.80
2022-09-30T18:09:43.957Z,93.00
2022-09-30T18:12:13.334Z,93.50
2022-09-30T18:14:41.258Z,94.18
2022-09-30T18:17:09.203Z,94.24
2022-09-30T18:19:37.094Z,94.08
2022-09-30T18:22:05.100Z,94.62
2022-09-30T18:24:50.608Z,94.71
2022-09-30T18:27:22.056Z,94.98
2022-09-30T18:29:50.342Z,95.37
2022-09-30T18:32:18.555Z,95.50
2022-09-30T18:34:46.643Z,95.83
2022-09-30T18:37:14.573Z,95.89
2022-09-30T18:39:42.636Z,95.07
2022-09-30T18:42:10.623Z,95.66
2022-09-30T18:44:40.136Z,95.28
2022-09-30T18:47:08.130Z,95.38
2022-09-30T18:49:36.054Z,95.79
2022-09-30T18:52:04.641Z,96.05
2022-09-30T18:54:33.750Z,95.17
2022-09-30T18:57:01.765Z,94.77
2022-09-30T18:59:29.754Z,94.95
2022-09-30T19:02:00.591Z,94.45
2022-09-30T19:04:29.113Z,94.48
2022-09-30T19:06:57.044Z,94.35
2022-09-30T19:09:27.637Z,94.62
2022-09-30T19:11:55.679Z,94.92
2022-09-30T19:14:24.159Z,95.13
2022-09-30T19:16:52.503Z,95.05
2022-09-30T19:19:22.900Z,94.92
2022-09-30T19:21:51.145Z,94.81
2022-09-30T19:24:20.371Z,94.93
2022-09-30T19:26:52.313Z,95.38
2022-09-30T19:29:20.458Z,95.72
2022-09-30T19:31:48.421Z,95.90
2022-09-30T19:34:27.776Z,96.03
2022-09-30T19:37:00.082Z,96.19
2022-09-30T19:39:40.699Z,96.21
2022-09-30T19:42:18.345Z,96.11
2022-09-30T19:44:47.625Z,95.95
2022-09-30T19:47:16.782Z,95.93
2022-09-30T19:49:45.249Z,95.92
2022-09-30T19:52:22.014Z,96.06
2022-09-30T19:54:51.853Z,95.94
2022-09-30T19:57:19.768Z,95.41
2022-09-30T19:59:47.671Z,96.23
2022-09-30T20:02:15.693Z,96.46
2022-09-30T20:04:44.337Z,96.21
2022-09-30T20:07:16.219Z,96.38
2022-09-30T20:09:44.169Z,96.49
2022-09-30T20:12:12.093Z,96.41
2022-09-30T20:14:57.660Z,96.37
2022-09-30T20:17:25.596Z,96.37
2022-09-30T20:20:07.372Z,96.24
2022-09-30T20:22:36.783Z,96.23
2022-09-30T20:25:05.333Z,95.90
2022-09-30T20:27:33.267Z,96.10
2022-09-30T20:30:01.251Z,96.27
2022-09-30T20:32:30.841Z,95.99
2022-09-30T20:34:59.095Z,96.26
2022-09-30T20:37:27.153Z,96.37
2022-09-30T20:39:57.759Z,95.63
2022-09-30T20:42:29.539Z,95.92
2022-09-30T20:45:03.110Z,96.23
2022-09-30T20:47:31.582Z,96.37
2022-09-30T20:49:59.591Z,96.23
2022-09-30T20:52:28.797Z,96.16
2022-09-30T20:55:00.521Z,96.65
2022-09-30T20:57:30.238Z,96.33
2022-09-30T20:59:59.201Z,96.94
2022-09-30T21:02:29.143Z,96.78
2022-09-30T21:04:58.386Z,96.62
2022-09-30T21:07:26.362Z,96.73
2022-09-30T21:09:54.377Z,96.97
2022-09-30T21:12:23.687Z,97.14
2022-09-30T21:14:51.611Z,97.27
2022-09-30T21:17:19.537Z,97.13
2022-09-30T21:19:47.548Z,97.01
2022-09-30T21:22:15.531Z,96.64
2022-09-30T21:24:43.497Z,97.08
2022-09-30T21:27:11.945Z,97.27
2022-09-30T21:29:41.216Z,97.31
2022-09-30T21:32:09.210Z,97.20
2022-09-30T21:34:37.133Z,97.23
2022-09-30T21:37:05.101Z,97.28
2022-09-30T21:39:32.981Z,97.29
2022-09-30T21:42:00.908Z,97.38
2022-09-30T21:44:28.917Z,97.50
2022-09-30T21:46:58.439Z,97.13
2022-09-30T22:45:24.938Z,98.53
2022-09-30T22:47:53.155Z,99.53
2022-09-30T22:50:55.811Z,100.00
